Time;durP1;ratioP1;P1;durP2;ratioP2;P2;SDS_P1;SDS_P2;PMS_P1;PMS_P2;Temp;Humidity;BMP_temperature;BMP_pressure;BME280_temperature;BME280_humidity;BME280_pressure;Samples;Min_cycle;Max_cycle;Signal;HPM_P1;HPM_P2
2022/10/20 00:01:24;;;;;;;6.23;4.20;;;6.60;99.90;;;-141.84;77.98;17668.25;5091005;28;20236;-61
2022/10/20 00:03:54;;;;;;;5.30;3.87;;;6.60;99.90;;;-141.84;78.17;17645.91;5091306;28;20224;-61
2022/10/20 00:06:25;;;;;;;6.53;3.83;;;6.50;99.90;;;-141.84;77.74;17654.03;5090562;28;20719;-61
2022/10/20 00:08:55;;;;;;;4.07;3.67;;;6.50;99.90;;;-141.84;77.80;17654.03;5091055;28;20231;-61
2022/10/20 00:11:25;;;;;;;4.40;3.50;;;6.60;99.90;;;-141.84;77.35;17664.19;5090929;28;20207;-60
2022/10/20 00:13:57;;;;;;;5.97;3.73;;;6.60;99.90;;;-141.84;77.21;17637.78;5091160;28;20687;-60
2022/10/20 00:16:27;;;;;;;4.83;3.87;;;6.60;99.90;;;-141.84;77.47;17725.13;5090968;28;20236;-60
2022/10/20 00:18:56;;;;;;;4.30;3.90;;;6.60;99.90;;;-141.84;77.13;17676.38;5090888;28;20231;-62
2022/10/20 00:21:28;;;;;;;4.63;3.63;;;6.60;99.90;;;-141.84;77.65;17623.56;5090753;28;20232;-61
2022/10/20 00:23:59;;;;;;;4.07;3.40;;;6.60;99.90;;;-141.84;77.74;17652.00;5092657;28;20227;-62
2022/10/20 00:26:29;;;;;;;3.93;3.60;;;6.60;99.90;;;-141.84;77.00;17637.78;5094723;28;20242;-60
2022/10/20 00:28:59;;;;;;;3.97;3.57;;;6.60;99.90;;;-141.84;77.36;17674.34;5095647;28;20204;-61
2022/10/20 00:31:26;;;;;;;3.97;3.60;;;6.60;99.90;;;-141.84;76.91;17668.25;5095074;28;20232;-61
2022/10/20 00:33:55;;;;;;;4.03;3.60;;;6.60;99.90;;;-141.84;76.74;17674.34;5095199;28;20235;-61
2022/10/20 00:36:24;;;;;;;3.93;3.53;;;6.60;99.90;;;-141.84;77.28;17662.16;5094778;28;20231;-60
2022/10/20 00:38:58;;;;;;;4.63;4.03;;;6.60;99.90;;;-141.84;77.30;17668.25;5095127;28;20223;-61
2022/10/20 00:41:28;;;;;;;4.57;3.50;;;6.60;99.90;;;-141.84;77.48;17694.66;5094605;28;20195;-60
2022/10/20 00:44:00;;;;;;;4.00;3.50;;;6.60;99.90;;;-141.84;77.77;17643.88;5095102;28;20210;-61
2022/10/20 00:46:36;;;;;;;4.10;3.57;;;6.50;99.90;;;-141.84;77.78;17637.78;5094741;28;20223;-62
2022/10/20 00:49:15;;;;;;;4.00;3.47;;;6.50;99.90;;;-141.84;77.21;17649.97;5094574;28;20246;-62
2022/10/20 00:51:44;;;;;;;4.07;3.53;;;6.50;99.90;;;-141.84;77.15;17647.94;5094476;28;20595;-62
2022/10/20 00:54:19;;;;;;;5.80;3.90;;;6.50;99.90;;;-141.84;77.53;17625.59;5095002;28;20227;-60
2022/10/20 00:56:49;;;;;;;5.60;3.70;;;6.50;99.90;;;-141.84;77.75;17627.63;5094262;28;20234;-61
2022/10/20 00:59:25;;;;;;;5.83;4.10;;;6.40;99.90;;;-141.84;77.52;17623.56;5094955;28;20212;-61
2022/10/20 01:01:55;;;;;;;3.70;3.40;;;6.40;99.90;;;-141.84;77.42;17633.72;5094861;28;20567;-61
2022/10/20 01:04:27;;;;;;;6.20;3.67;;;6.40;99.90;;;-141.84;76.99;17666.22;5094366;28;20228;-60
2022/10/20 01:06:56;;;;;;;4.73;4.10;;;6.40;99.90;;;-141.84;77.06;17668.25;5094208;28;20240;-61
2022/10/20 01:09:24;;;;;;;4.47;3.70;;;6.40;99.90;;;-141.84;77.43;17641.84;5094229;28;20711;-61
2022/10/20 01:12:08;;;;;;;4.63;3.70;;;6.40;99.90;;;-141.84;76.99;17652.00;5094369;28;20277;-61
2022/10/20 01:14:53;;;;;;;6.43;3.67;;;6.40;99.90;;;-141.84;77.35;17645.91;5094504;28;20189;-62
2022/10/20 01:17:39;;;;;;;5.50;3.87;;;6.30;99.90;;;-141.84;77.94;17625.59;5094784;28;20184;-62
2022/10/20 01:20:46;;;;;;;4.60;3.90;;;6.30;99.90;;;-141.84;77.69;17629.66;5094369;28;20208;-61
2022/10/20 01:23:53;;;;;;;4.73;3.80;;;6.30;99.90;;;-141.84;78.22;17623.56;5094539;28;20211;-60
2022/10/20 01:26:57;;;;;;;4.37;3.97;;;6.30;99.90;;;-141.84;78.70;17621.53;5091599;28;20293;-60
2022/10/20 01:29:33;;;;;;;4.73;3.93;;;6.20;99.90;;;-141.84;78.87;17623.56;5093892;28;20736;-61
2022/10/20 01:32:15;;;;;;;4.40;4.00;;;6.20;99.90;;;-141.84;78.90;17623.56;5094384;28;20636;-61
2022/10/20 01:34:54;;;;;;;4.33;3.93;;;6.20;99.90;;;-141.84;78.58;17607.31;5093407;28;20227;-61
2022/10/20 01:37:34;;;;;;;5.50;4.17;;;6.20;99.90;;;-141.84;78.61;17607.31;5093782;28;20234;-60
2022/10/20 01:40:30;;;;;;;4.70;4.23;;;6.20;99.90;;;-141.84;78.83;17603.25;5093405;28;20228;-61
2022/10/20 01:43:04;;;;;;;4.27;3.87;;;6.20;99.90;;;-141.84;78.53;17607.31;5093333;28;20224;-60
2022/10/20 01:45:39;;;;;;;5.10;3.70;;;6.20;99.90;;;-141.84;78.31;17605.28;5093809;28;20268;-61
2022/10/20 01:48:10;;;;;;;6.20;3.77;;;6.20;99.90;;;-141.84;77.95;17631.69;5093595;28;20284;-61
2022/10/20 01:50:41;;;;;;;4.77;4.00;;;6.20;99.90;;;-141.84;78.41;17595.13;5093534;28;20188;-62
2022/10/20 01:53:11;;;;;;;4.43;3.93;;;6.20;99.90;;;-141.84;78.48;17601.22;5094092;28;20249;-61
2022/10/20 01:55:40;;;;;;;4.30;3.70;;;6.20;99.90;;;-141.84;78.91;17587.00;5093134;28;20230;-62
2022/10/20 01:59:03;;;;;;;4.20;3.80;;;6.20;99.90;;;-141.84;79.10;17580.91;5093059;28;20227;-61
2022/10/20 02:01:52;;;;;;;4.00;3.60;;;6.10;99.90;;;-141.84;79.17;17584.97;5081903;28;20228;-59
2022/10/20 02:04:34;;;;;;;4.43;3.40;;;6.10;99.90;;;-141.84;78.95;17587.00;5092964;28;20228;-60
2022/10/20 02:07:11;;;;;;;5.10;3.40;;;6.10;99.90;;;-141.84;78.52;17623.56;5092573;28;20493;-61
2022/10/20 02:09:47;;;;;;;4.57;3.63;;;6.10;99.90;;;-141.84;77.76;17613.41;5092915;28;20238;-61
2022/10/20 02:12:24;;;;;;;3.70;3.33;;;6.20;99.90;;;-141.84;78.61;17560.59;5092471;28;20227;-60
2022/10/20 02:14:54;;;;;;;5.37;3.57;;;6.10;99.90;;;-141.84;78.38;17635.75;5092865;28;20220;-59
2022/10/20 02:17:24;;;;;;;5.07;3.20;;;6.20;99.90;;;-141.84;78.33;17595.13;5092742;28;20207;-61
2022/10/20 02:19:53;;;;;;;6.33;3.67;;;6.20;99.90;;;-141.84;78.51;17599.19;5093213;28;20260;-61
2022/10/20 02:22:23;;;;;;;3.60;2.90;;;6.10;99.90;;;-141.84;78.76;17582.94;5092413;28;20231;-61
2022/10/20 02:24:52;;;;;;;4.03;3.37;;;6.10;99.90;;;-141.84;78.83;17619.50;5092431;28;20265;-60
2022/10/20 02:27:26;;;;;;;4.43;3.40;;;6.10;99.90;;;-141.84;78.46;17615.44;5092381;28;20227;-61
2022/10/20 02:30:01;;;;;;;4.40;3.63;;;6.20;99.90;;;-141.84;77.58;17619.50;5102800;28;20241;-60
2022/10/20 02:32:35;;;;;;;4.87;3.50;;;6.20;99.90;;;-141.84;77.90;17629.66;5113530;27;20187;-61
2022/10/20 02:35:06;;;;;;;3.50;3.20;;;6.20;99.90;;;-141.84;78.28;17607.31;5113450;28;20699;-61
2022/10/20 02:37:34;;;;;;;3.60;3.30;;;6.20;99.90;;;-141.84;78.52;17591.06;5112821;28;20223;-60
2022/10/20 02:40:04;;;;;;;3.77;3.43;;;6.20;99.90;;;-141.84;79.04;17625.59;5112936;27;20703;-60
2022/10/20 02:42:32;;;;;;;3.83;3.07;;;6.20;99.90;;;-141.84;79.36;17566.69;5112782;28;20236;-60
2022/10/20 02:45:00;;;;;;;4.83;3.77;;;6.10;99.90;;;-141.84;79.98;17597.16;5112610;28;20770;-61
2022/10/20 02:47:28;;;;;;;3.67;3.20;;;6.10;99.90;;;-141.84;80.73;17554.50;5111983;28;20211;-60
2022/10/20 02:49:57;;;;;;;4.27;3.37;;;6.00;99.90;;;-141.84;80.79;17546.38;5113530;28;20592;-61
2022/10/20 02:52:25;;;;;;;5.07;3.83;;;6.00;99.90;;;-141.84;80.44;17582.94;5112648;28;20648;-62
2022/10/20 02:54:53;;;;;;;5.47;3.77;;;6.00;99.90;;;-141.84;79.75;17591.06;5112720;28;20223;-60
2022/10/20 02:57:21;;;;;;;4.73;3.37;;;6.10;99.90;;;-141.84;79.49;17589.03;5112450;28;20756;-61
2022/10/20 02:59:49;;;;;;;4.57;3.20;;;6.20;99.90;;;-141.84;80.42;17601.22;5112236;28;20781;-61
2022/10/20 03:02:17;;;;;;;4.33;3.20;;;6.10;99.90;;;-141.84;81.09;17550.44;5113055;28;20208;-61
2022/10/20 03:04:45;;;;;;;4.53;3.50;;;6.00;99.90;;;-141.84;81.87;17562.63;5112426;28;20718;-60
2022/10/20 03:07:15;;;;;;;5.03;3.60;;;6.00;99.90;;;-141.84;81.88;17530.13;5112680;28;20219;-61
2022/10/20 03:09:44;;;;;;;4.00;3.60;;;6.00;99.90;;;-141.84;82.09;17534.19;5112203;28;20231;-60
2022/10/20 03:12:12;;;;;;;4.13;3.53;;;5.90;99.90;;;-141.84;82.01;17550.44;5112085;28;20640;-61
2022/10/20 03:14:41;;;;;;;3.97;3.57;;;6.00;99.90;;;-141.84;82.28;17519.97;5111906;28;20252;-60
2022/10/20 03:17:09;;;;;;;3.73;3.30;;;6.00;99.90;;;-141.84;82.00;17540.28;5112976;28;20571;-61
2022/10/20 03:19:38;;;;;;;5.83;3.67;;;6.00;99.90;;;-141.84;82.08;17554.50;5112012;28;20220;-60
2022/10/20 03:22:06;;;;;;;4.63;3.50;;;6.00;99.90;;;-141.84;82.21;17560.59;5112411;27;20231;-61
2022/10/20 03:24:35;;;;;;;3.90;3.47;;;6.00;99.90;;;-141.84;82.50;17530.13;5111976;28;20231;-62
2022/10/20 03:27:03;;;;;;;4.27;3.53;;;5.90;99.90;;;-141.84;82.87;17550.44;5112064;28;20234;-60
2022/10/20 03:29:32;;;;;;;6.07;3.90;;;5.90;99.90;;;-141.84;82.80;17477.31;5111607;28;20219;-60
2022/10/20 03:32:00;;;;;;;5.10;3.90;;;5.90;99.90;;;-141.84;81.66;17566.69;5112594;28;20203;-62
2022/10/20 03:34:28;;;;;;;4.23;3.73;;;6.10;99.90;;;-141.84;81.23;17538.25;5111730;28;20645;-63
2022/10/20 03:36:56;;;;;;;4.83;3.70;;;6.00;99.90;;;-141.84;81.86;17552.47;5111863;28;20249;-62
2022/10/20 03:39:24;;;;;;;4.20;3.80;;;6.00;99.90;;;-141.84;81.60;17519.97;5111702;28;20227;-60
2022/10/20 03:41:56;;;;;;;4.67;3.90;;;6.00;99.90;;;-141.84;82.12;17526.06;5111876;28;20219;-60
2022/10/20 03:44:24;;;;;;;4.33;3.93;;;5.90;99.90;;;-141.84;82.85;17495.59;5111934;28;20186;-60
2022/10/20 03:46:52;;;;;;;4.23;3.83;;;6.00;99.90;;;-141.84;82.96;17471.22;5112057;28;20191;-61
2022/10/20 03:49:20;;;;;;;5.23;4.10;;;5.90;99.90;;;-141.84;81.73;17475.28;5111495;28;20223;-62
2022/10/20 03:51:48;;;;;;;6.47;4.17;;;6.00;99.90;;;-141.84;81.47;17493.56;5111561;28;20235;-61
2022/10/20 03:54:16;;;;;;;4.60;4.07;;;5.90;99.90;;;-141.84;81.89;17511.84;5111636;28;20573;-61
2022/10/20 03:56:44;;;;;;;6.40;4.57;;;5.90;99.90;;;-141.84;82.55;17503.72;5102932;28;20227;-60
2022/10/20 03:59:13;;;;;;;5.77;4.03;;;5.80;99.90;;;-141.84;82.12;17530.13;5103366;28;20199;-61
2022/10/20 04:01:45;;;;;;;4.83;4.23;;;5.90;99.90;;;-141.84;82.37;17513.88;5106905;28;20233;-60
2022/10/20 04:04:14;;;;;;;5.00;4.50;;;5.80;99.90;;;-141.84;82.30;17505.75;5111509;28;20219;-60
2022/10/20 04:06:42;;;;;;;6.60;3.80;;;5.80;99.90;;;-141.84;82.71;17461.09;5111481;28;20238;-60
2022/10/20 04:09:10;;;;;;;5.10;4.10;;;5.70;99.90;;;-141.84;83.73;17461.09;5111301;28;20666;-62
2022/10/20 04:11:38;;;;;;;5.10;4.20;;;5.70;99.90;;;-141.84;84.30;17465.13;5111596;28;20633;-59
2022/10/20 04:14:06;;;;;;;6.17;5.20;;;5.60;99.90;;;-141.84;84.76;17473.25;5111679;28;20203;-60
2022/10/20 04:16:35;;;;;;;5.20;4.70;;;5.60;99.90;;;-141.84;84.97;17465.13;5111346;28;20229;-61
2022/10/20 04:19:03;;;;;;;5.13;4.47;;;5.50;99.90;;;-141.84;85.36;17489.50;5111354;28;20237;-60
2022/10/20 04:21:32;;;;;;;5.13;4.63;;;5.50;99.90;;;-141.84;84.57;17485.44;5111291;28;20234;-59
2022/10/20 04:24:00;;;;;;;5.43;4.83;;;5.50;99.90;;;-141.84;83.50;17455.00;5111026;28;20220;-61
2022/10/20 04:26:28;;;;;;;6.37;5.20;;;5.60;99.90;;;-141.84;82.83;17479.34;5111351;28;20252;-59
2022/10/20 04:28:56;;;;;;;6.90;4.80;;;5.60;99.90;;;-141.84;83.08;17471.22;5111686;28;20203;-65
2022/10/20 04:31:24;;;;;;;5.57;5.07;;;5.60;99.90;;;-141.84;83.82;17448.91;5111503;28;20215;-65
2022/10/20 04:33:54;;;;;;;5.53;4.73;;;5.50;99.90;;;-141.84;84.46;17436.72;5111477;28;20226;-65
2022/10/20 04:36:22;;;;;;;5.30;4.80;;;5.40;99.90;;;-141.84;85.06;17438.75;5111028;28;20284;-63
2022/10/20 04:38:50;;;;;;;5.53;4.60;;;5.40;99.90;;;-141.84;85.30;17436.72;5111230;28;20234;-65
2022/10/20 04:41:18;;;;;;;7.73;5.27;;;5.30;99.90;;;-141.84;85.58;17459.06;5111512;28;20211;-65
2022/10/20 04:43:50;;;;;;;7.07;4.90;;;5.30;99.90;;;-141.84;85.51;17426.56;5111045;28;20219;-65
2022/10/20 04:46:19;;;;;;;5.97;4.77;;;5.40;99.90;;;-141.84;85.87;17416.41;5111088;28;20234;-66
2022/10/20 04:48:47;;;;;;;5.73;5.13;;;5.30;99.90;;;-141.84;85.91;17444.84;5111180;28;20233;-65
2022/10/20 04:51:17;;;;;;;8.20;5.50;;;5.40;99.90;;;-141.84;86.02;17412.34;5111016;28;20231;-65
2022/10/20 04:53:45;;;;;;;7.53;5.20;;;5.40;99.90;;;-141.84;86.06;17422.50;5110841;28;20640;-65
2022/10/20 04:56:18;;;;;;;6.87;5.30;;;5.40;99.90;;;-141.84;85.72;17438.75;5111307;28;20256;-65
2022/10/20 04:58:48;;;;;;;6.50;5.33;;;5.40;99.90;;;-141.84;85.50;17422.50;5110701;28;20720;-64
2022/10/20 05:01:18;;;;;;;8.63;5.87;;;5.40;99.90;;;-141.84;84.42;17457.03;5110810;28;20227;-64
2022/10/20 05:03:46;;;;;;;5.67;5.07;;;5.50;99.90;;;-141.84;83.38;17436.72;5111051;28;20253;-65
2022/10/20 05:06:19;;;;;;;5.60;5.00;;;5.60;99.90;;;-141.84;82.88;17418.44;5093567;28;20705;-64
2022/10/20 05:08:50;;;;;;;6.43;5.00;;;5.60;99.90;;;-141.84;83.75;17430.63;5090388;28;20702;-66
2022/10/20 05:11:21;;;;;;;6.03;5.43;;;5.50;99.90;;;-141.84;84.23;17402.19;5113212;28;20211;-65
2022/10/20 05:13:49;;;;;;;7.37;5.60;;;5.50;99.90;;;-141.84;84.78;17436.72;5114688;28;20686;-65
2022/10/20 05:16:18;;;;;;;7.07;5.50;;;5.40;99.90;;;-141.84;84.99;17428.59;5114504;28;20223;-65
2022/10/20 05:18:47;;;;;;;6.03;5.43;;;5.40;99.90;;;-141.84;85.46;17406.25;5114600;27;20227;-65
2022/10/20 05:21:22;;;;;;;7.33;5.97;;;5.30;99.90;;;-141.84;85.88;17406.25;5114528;27;20759;-65
2022/10/20 05:23:56;;;;;;;6.70;6.00;;;5.30;99.90;;;-141.84;85.94;17420.47;5114984;28;20225;-64
2022/10/20 05:26:26;;;;;;;7.07;6.03;;;5.30;99.90;;;-141.84;86.06;17404.22;5114478;27;20214;-65
2022/10/20 05:28:54;;;;;;;6.77;6.00;;;5.30;99.90;;;-141.84;86.30;17406.25;5114500;28;20205;-65
2022/10/20 05:31:23;;;;;;;8.97;6.43;;;5.30;99.90;;;-141.84;86.53;17408.28;5113522;27;20280;-65
2022/10/20 05:33:54;;;;;;;7.73;6.40;;;5.30;99.90;;;-141.84;86.57;17420.47;5114114;28;20219;-67
2022/10/20 05:36:26;;;;;;;9.33;6.07;;;5.20;99.90;;;-141.84;86.98;17363.59;5114111;28;20231;-64
2022/10/20 05:38:56;;;;;;;7.70;6.77;;;5.20;99.90;;;-141.84;86.61;17387.97;5114096;28;20749;-64
2022/10/20 05:41:27;;;;;;;7.83;6.50;;;5.20;99.90;;;-141.84;86.60;17396.09;5113671;27;20206;-64
2022/10/20 05:43:57;;;;;;;8.37;6.47;;;5.20;99.90;;;-141.84;86.52;17402.19;5114124;28;20572;-64
2022/10/20 05:46:27;;;;;;;9.20;6.53;;;5.20;99.90;;;-141.84;86.41;17392.03;5113985;27;20219;-66
2022/10/20 05:48:58;;;;;;;9.63;6.53;;;5.20;99.90;;;-141.84;86.47;17408.28;5113881;28;20230;-64
2022/10/20 05:51:31;;;;;;;7.73;6.60;;;5.20;99.90;;;-141.84;86.24;17387.97;5113254;28;20231;-64
2022/10/20 05:53:59;;;;;;;7.97;6.80;;;5.30;99.90;;;-141.84;86.00;17404.22;5113138;28;20227;-65
2022/10/20 05:56:30;;;;;;;10.97;7.07;;;5.30;99.90;;;-141.84;86.07;17400.16;5112313;28;20202;-64
2022/10/20 05:58:59;;;;;;;9.17;7.03;;;5.30;99.90;;;-141.84;84.92;17396.09;5114005;28;20200;-65
2022/10/20 06:01:38;;;;;;;11.47;7.17;;;5.40;99.90;;;-141.84;83.70;17402.19;5113322;28;20235;-64
2022/10/20 06:04:07;;;;;;;8.33;6.37;;;5.50;99.90;;;-141.84;82.87;17361.56;5113448;28;20222;-64
2022/10/20 06:06:37;;;;;;;7.20;6.33;;;5.60;99.90;;;-141.84;83.60;17418.44;5113436;27;20347;-65
2022/10/20 06:09:08;;;;;;;9.63;7.53;;;5.50;99.90;;;-141.84;84.29;17387.97;5113563;28;20280;-65
2022/10/20 06:11:37;;;;;;;10.33;7.57;;;5.50;99.90;;;-141.84;84.22;17383.91;5113324;28;20203;-63
2022/10/20 06:14:07;;;;;;;9.10;7.10;;;5.60;99.90;;;-141.84;84.26;17394.06;5114379;28;20229;-64
2022/10/20 06:16:36;;;;;;;9.27;6.87;;;5.50;99.90;;;-141.84;84.16;17394.06;5113223;28;20223;-65
2022/10/20 06:19:06;;;;;;;10.37;7.77;;;5.60;99.90;;;-141.84;83.27;17432.66;5113368;28;20227;-59
2022/10/20 06:21:37;;;;;;;9.77;7.80;;;5.60;99.90;;;-141.84;82.63;17430.63;5113239;27;20233;-60
2022/10/20 06:24:07;;;;;;;11.90;7.37;;;5.70;99.90;;;-141.84;82.60;17434.69;5113488;28;20223;-59
2022/10/20 06:26:36;;;;;;;9.13;7.00;;;5.80;99.90;;;-141.84;82.61;17426.56;5112709;28;20214;-61
2022/10/20 06:29:07;;;;;;;11.07;8.17;;;5.80;99.90;;;-141.84;82.65;17455.00;5113438;28;20673;-61
2022/10/20 06:31:39;;;;;;;9.10;7.40;;;5.80;99.90;;;-141.84;82.91;17426.56;5112901;28;20253;-65
2022/10/20 06:34:11;;;;;;;9.30;7.53;;;5.90;99.90;;;-141.84;82.49;17455.00;5112931;28;20223;-66
2022/10/20 06:36:41;;;;;;;10.87;8.00;;;5.90;99.90;;;-141.84;82.00;17446.88;5112846;28;20254;-65
2022/10/20 06:39:14;;;;;;;9.07;7.30;;;6.00;99.90;;;-141.84;81.66;17422.50;5112987;28;20652;-64
2022/10/20 06:41:42;;;;;;;9.20;7.37;;;5.90;99.90;;;-141.84;80.97;17489.50;5112397;27;20227;-64
2022/10/20 06:44:10;;;;;;;8.50;7.57;;;6.10;99.90;;;-141.84;80.33;17450.94;5113336;28;20248;-64
2022/10/20 06:46:38;;;;;;;8.87;6.90;;;6.20;99.90;;;-141.84;80.09;17459.06;5112722;28;20718;-65
2022/10/20 06:49:07;;;;;;;9.67;7.30;;;6.30;99.90;;;-141.84;79.84;17475.28;5112726;28;20226;-65
2022/10/20 06:51:36;;;;;;;10.40;8.30;;;6.40;99.90;;;-141.84;79.40;17495.59;5112562;28;20305;-65
2022/10/20 06:54:05;;;;;;;10.77;7.67;;;6.50;99.90;;;-141.84;77.28;17538.25;5112866;28;20231;-64
2022/10/20 06:56:36;;;;;;;9.13;7.47;;;6.50;99.90;;;-141.84;76.54;17544.34;5112400;28;20636;-65
2022/10/20 06:59:04;;;;;;;10.03;6.87;;;6.80;99.90;;;-141.84;76.19;17560.59;5112964;28;20229;-65
2022/10/20 07:01:36;;;;;;;11.83;7.70;;;6.90;99.90;;;-141.84;75.18;17625.59;5112434;28;20242;-65
2022/10/20 07:04:07;;;;;;;10.23;7.53;;;7.00;99.90;;;-141.84;73.83;17649.97;5112565;28;20617;-65
2022/10/20 07:06:39;;;;;;;9.83;7.40;;;7.20;99.90;;;-141.84;73.80;17690.59;5111914;27;20227;-65
2022/10/20 07:09:13;;;;;;;11.87;7.57;;;7.30;99.90;;;-141.84;73.96;17684.50;5112615;28;20225;-65
2022/10/20 07:11:42;;;;;;;7.97;6.70;;;7.40;99.90;;;-141.84;73.57;17708.88;5111909;28;20233;-65
2022/10/20 07:14:13;;;;;;;9.67;7.73;;;7.50;99.90;;;-141.84;72.64;17743.41;5113072;28;20191;-65
2022/10/20 07:16:41;;;;;;;10.67;8.40;;;7.60;99.90;;;-141.84;72.89;17765.75;5111882;28;20235;-64
2022/10/20 07:19:09;;;;;;;8.90;6.90;;;7.70;99.90;;;-141.84;72.59;17733.25;5112292;28;20226;-65
2022/10/20 07:21:38;;;;;;;9.93;7.40;;;7.70;99.90;;;-141.84;71.91;17796.22;5112090;28;20339;-64
2022/10/20 07:24:14;;;;;;;9.50;7.03;;;7.80;99.90;;;-141.84;72.61;17810.44;5112325;28;20230;-65
2022/10/20 07:26:43;;;;;;;10.17;7.50;;;7.90;99.90;;;-141.84;71.71;17820.59;5111765;28;20237;-65
2022/10/20 07:29:13;;;;;;;9.37;7.17;;;8.00;99.90;;;-141.84;71.23;17887.63;5112771;28;20574;-65
2022/10/20 07:31:43;;;;;;;8.13;7.27;;;8.00;99.90;;;-141.84;71.37;17853.09;5111970;28;20283;-65
2022/10/20 07:34:14;;;;;;;8.83;7.00;;;8.10;99.90;;;-141.84;70.69;17914.03;5111998;28;20241;-64
2022/10/20 07:36:58;;;;;;;8.17;7.00;;;8.20;99.90;;;-141.84;69.83;17938.44;5112018;28;20227;-66
2022/10/20 07:39:28;;;;;;;9.53;7.53;;;8.20;99.90;;;-141.84;70.04;17934.38;5111967;28;20246;-65
2022/10/20 07:41:56;;;;;;;8.83;7.30;;;8.30;99.90;;;-141.84;70.01;17932.34;5111533;28;20593;-66
2022/10/20 07:44:24;;;;;;;7.83;6.73;;;8.40;99.90;;;-141.84;69.51;18033.91;5111920;28;20542;-66
2022/10/20 07:46:52;;;;;;;11.87;7.20;;;8.50;99.90;;;-141.84;68.71;18074.53;5112338;28;20203;-65
2022/10/20 07:49:20;;;;;;;9.67;7.00;;;8.50;99.90;;;-141.84;68.37;18119.22;5111536;28;20724;-68
2022/10/20 07:52:08;;;;;;;11.00;7.80;;;8.60;99.90;;;-141.84;68.40;18109.06;5111448;28;20223;-65
2022/10/20 07:54:38;;;;;;;7.23;6.53;;;8.70;99.90;;;-141.84;68.43;18147.66;5111550;27;20722;-66
2022/10/20 07:57:06;;;;;;;9.13;6.53;;;8.70;99.90;;;-141.84;68.59;18139.53;5111105;28;20381;-65
2022/10/20 07:59:34;;;;;;;8.77;6.60;;;8.90;99.90;;;-141.84;68.47;18151.72;5111785;28;20203;-65
2022/10/20 08:02:02;;;;;;;10.03;7.07;;;8.90;99.90;;;-141.84;68.05;18200.47;5112320;28;20217;-65
2022/10/20 08:04:30;;;;;;;13.03;6.67;;;9.00;99.90;;;-141.84;67.26;18247.22;5111356;28;20246;-65
2022/10/20 08:06:59;;;;;;;7.37;6.53;;;9.10;99.90;;;-141.84;68.12;18222.81;5111413;28;20261;-66
2022/10/20 08:09:28;;;;;;;8.07;6.27;;;9.20;99.90;;;-141.84;66.96;18318.31;5111316;28;20230;-65
2022/10/20 08:11:57;;;;;;;10.10;7.37;;;9.30;99.90;;;-141.84;66.84;18295.97;5110978;28;20225;-65
2022/10/20 08:14:26;;;;;;;9.50;7.13;;;9.30;99.90;;;-141.84;66.17;18383.31;5111202;28;20666;-66
2022/10/20 08:16:55;;;;;;;11.73;7.00;;;9.40;99.90;;;-141.84;65.78;18428.03;5110777;28;20278;-65
2022/10/20 08:19:23;;;;;;;7.60;6.80;;;9.40;99.90;;;-141.84;66.59;18356.91;5111629;28;20227;-66
2022/10/20 08:22:05;;;;;;;7.40;6.63;;;9.40;99.90;;;-141.84;66.29;18393.47;5098036;28;20313;-65
2022/10/20 08:24:34;;;;;;;9.07;6.70;;;9.50;99.90;;;-141.84;65.66;18468.66;5111133;28;20226;-67
2022/10/20 08:27:03;;;;;;;8.10;6.80;;;9.60;99.90;;;-141.84;65.63;18464.59;5111186;28;20230;-65
2022/10/20 08:29:31;;;;;;;7.67;6.20;;;9.70;99.90;;;-141.84;66.37;18421.91;5111062;28;20674;-66
2022/10/20 08:31:59;;;;;;;9.60;6.63;;;9.70;99.90;;;-141.84;65.94;18460.53;5111578;28;20690;-65
2022/10/20 08:34:27;;;;;;;9.07;6.63;;;9.70;99.90;;;-141.84;66.14;18464.59;5111002;28;20226;-66
2022/10/20 08:36:56;;;;;;;8.43;6.53;;;9.80;99.90;;;-141.84;66.04;18466.63;5111206;28;20219;-65
2022/10/20 08:39:24;;;;;;;7.20;6.53;;;9.80;99.90;;;-141.84;64.97;18586.50;5110622;28;20268;-65
2022/10/20 08:41:55;;;;;;;7.77;6.97;;;9.90;99.90;;;-141.84;64.85;18602.75;5111185;28;20227;-65
2022/10/20 08:44:43;;;;;;;8.20;5.93;;;10.00;99.90;;;-141.84;65.27;18592.59;5111922;28;20188;-64
2022/10/20 08:47:25;;;;;;;8.03;6.40;;;10.10;99.90;;;-141.84;64.67;18651.50;5115455;28;20537;-65
2022/10/20 08:50:00;;;;;;;7.73;6.37;;;10.20;99.90;;;-141.84;63.19;18769.34;5115321;28;20210;-65
2022/10/20 08:52:28;;;;;;;7.50;6.30;;;10.30;99.90;;;-141.84;63.54;18738.88;5114965;28;20230;-66
2022/10/20 08:54:57;;;;;;;7.47;6.03;;;10.30;99.90;;;-141.84;63.33;18828.28;5114513;28;20730;-65
2022/10/20 08:57:30;;;;;;;6.97;5.70;;;10.50;99.90;;;-141.84;62.83;18895.31;5114914;28;20226;-65
2022/10/20 09:00:15;;;;;;;6.20;5.60;;;10.80;99.90;;;-141.84;61.84;19005.03;5114970;28;20301;-65
2022/10/20 09:02:43;;;;;;;9.10;6.20;;;11.20;99.90;;;-141.84;61.26;19047.72;5114989;28;20223;-65
2022/10/20 09:05:13;;;;;;;6.40;5.63;;;11.30;99.90;;;-141.84;60.77;19110.72;5114917;28;20244;-65
2022/10/20 09:07:48;;;;;;;6.93;5.60;;;11.30;99.90;;;-141.84;60.70;19116.81;5114666;28;20233;-65
2022/10/20 09:10:29;;;;;;;7.67;5.80;;;11.30;99.90;;;-141.84;60.93;19155.41;5114218;28;20234;-65
2022/10/20 09:13:00;;;;;;;6.40;5.10;;;11.40;99.90;;;-141.84;60.26;19206.22;5114537;27;20227;-65
2022/10/20 09:15:31;;;;;;;6.33;5.00;;;11.50;99.90;;;-141.84;60.45;19236.69;5114591;28;20223;-64
2022/10/20 09:18:03;;;;;;;5.43;4.93;;;11.60;99.90;;;-141.84;59.69;19366.75;5114340;28;20266;-65
2022/10/20 09:20:39;;;;;;;5.13;4.30;;;11.80;99.90;;;-141.84;58.47;19470.38;5114082;28;20631;-65
2022/10/20 09:23:13;;;;;;;4.80;4.30;;;12.10;99.90;;;-141.84;57.60;19533.38;5114335;28;20251;-65
2022/10/20 09:26:01;;;;;;;4.43;4.00;;;12.30;99.90;;;-141.84;57.59;19582.16;5113466;28;20607;-65
2022/10/20 09:28:29;;;;;;;4.53;3.77;;;12.40;99.90;;;-141.84;56.65;19657.34;5114098;28;20234;-65
2022/10/20 09:31:31;;;;;;;3.80;3.40;;;12.50;99.90;;;-141.84;57.11;19647.19;5113968;28;20723;-65
2022/10/20 09:34:00;;;;;;;4.10;3.70;;;12.50;99.90;;;-141.84;57.53;19620.78;5114196;28;20289;-66
2022/10/20 09:36:34;;;;;;;6.60;4.03;;;12.50;99.90;;;-141.84;57.17;19671.56;5113969;28;20226;-66
2022/10/20 09:39:02;;;;;;;4.28;3.67;;;12.50;99.90;;;-141.84;57.03;19683.78;5113895;28;20714;-65
2022/10/20 09:41:32;;;;;;;6.07;3.38;;;12.60;99.90;;;-141.84;57.03;19647.19;5113691;28;20203;-65
2022/10/20 09:44:04;;;;;;;5.40;3.50;;;12.60;99.90;;;-141.84;57.04;19712.22;5114435;28;20202;-64
2022/10/20 09:46:44;;;;;;;4.40;3.20;;;12.60;99.90;;;-141.84;57.56;19722.38;5113935;28;20230;-66
2022/10/20 09:49:27;;;;;;;5.60;2.85;;;12.70;99.90;;;-141.84;55.59;19793.50;5113915;27;20664;-65
2022/10/20 09:51:56;;;;;;;3.25;2.92;;;13.10;99.90;;;-141.84;54.81;19872.78;5113987;28;20231;-65
2022/10/20 09:54:27;;;;;;;3.90;2.67;;;13.30;99.90;;;-141.84;54.61;19891.06;5113570;27;20642;-64
2022/10/20 09:57:05;;;;;;;5.18;3.00;;;13.30;99.90;;;-141.84;54.72;19909.34;5113420;28;20264;-64
2022/10/20 09:59:39;;;;;;;3.20;2.70;;;13.30;99.90;;;-141.84;55.66;19848.38;5113800;28;20183;-65
2022/10/20 10:02:32;;;;;;;2.75;2.53;;;13.20;99.90;;;-141.84;54.90;19891.06;5114524;28;20244;-65
2022/10/20 10:05:20;;;;;;;2.35;2.15;;;13.20;99.90;;;-141.84;54.79;19882.94;5113553;28;20208;-65
2022/10/20 10:07:59;;;;;;;3.33;2.70;;;13.20;99.90;;;-141.84;54.71;19941.88;5113851;28;20615;-65
2022/10/20 10:10:29;;;;;;;3.63;2.67;;;13.20;99.90;;;-141.84;55.25;19905.28;5112986;28;20219;-65
2022/10/20 10:13:02;;;;;;;4.65;2.75;;;13.30;99.90;;;-141.84;53.53;19984.56;5113473;28;20243;-65
2022/10/20 10:15:34;;;;;;;3.63;2.80;;;13.40;99.90;;;-141.84;53.18;19970.34;5113392;28;20223;-65
2022/10/20 10:18:13;;;;;;;5.03;3.13;;;13.40;99.90;;;-141.84;53.27;19996.75;5113585;27;20222;-66
2022/10/20 10:20:41;;;;;;;5.03;2.88;;;13.50;99.90;;;-141.84;52.25;20013.00;5113513;28;20227;-66
2022/10/20 10:23:24;;;;;;;4.72;2.53;;;13.60;99.90;;;-141.84;52.79;20047.56;5114036;28;20198;-65
2022/10/20 10:25:54;;;;;;;3.80;2.40;;;13.80;99.90;;;-141.84;52.89;20021.16;5113170;28;20226;-65
2022/10/20 10:28:37;;;;;;;3.35;2.47;;;13.80;99.90;;;-141.84;52.48;20063.81;5112961;27;20265;-65
2022/10/20 10:31:25;;;;;;;3.05;2.45;;;13.90;99.90;;;-141.84;52.82;20086.19;5113194;28;20223;-65